Time,TemperatureF,DewpointF,PressureIn,WindDirection,WindDirectionDegrees,WindSpeedMPH,WindSpeedGustMPH,Humidity,HourlyPrecipIn,Conditions,Clouds,dailyrainin,SoftwareType,DateUTC
2013-04-29 09:22:00,47.1,38.5,30.05,SSE,150,0.0,0.0,72,0.00,,---,0.00,VWS V14.01,2013-04-29 16:22:00,
2013-04-29 09:23:00,47.1,38.2,30.05,SE,128,0.0,0.0,71,0.03,,---,0.00,VWS V14.01,2013-04-29 16:23:00,
2013-04-29 09:28:00,47.4,38.5,30.05,ESE,120,0.0,0.0,71,0.03,,---,0.00,VWS V14.01,2013-04-29 16:28:00,
2013-04-29 09:33:00,47.6,38.3,30.05,SE,139,0.0,0.0,70,0.00,,---,0.00,VWS V14.01,2013-04-29 16:33:00,
2013-04-29 09:38:00,47.7,38.0,30.05,SSE,164,0.0,0.0,69,0.00,,---,0.00,VWS V14.01,2013-04-29 16:38:00,
2013-04-29 09:43:00,48.0,38.0,30.05,SE,142,0.0,0.0,68,0.00,,---,0.00,VWS V14.01,2013-04-29 16:43:00,
2013-04-29 09:48:00,48.2,38.2,30.05,SSE,161,0.0,0.0,68,0.00,,---,0.00,VWS V14.01,2013-04-29 16:48:00,
2013-04-29 09:53:00,48.2,37.8,30.06,SSE,163,0.0,0.0,67,0.00,,---,0.00,VWS V14.01,2013-04-29 16:53:00,
2013-04-29 09:58:00,48.2,37.0,30.06,ESE,111,0.0,0.0,65,0.00,,---,0.00,VWS V14.01,2013-04-29 16:58:00,
2013-04-29 10:03:00,48.5,37.3,30.06,SE,134,0.0,0.0,65,0.00,,---,0.00,VWS V14.01,2013-04-29 17:03:00,
2013-04-29 10:08:00,48.6,38.2,30.06,SSW,200,0.0,0.0,67,0.00,,---,0.00,VWS V14.01,2013-04-29 17:08:00,
2013-04-29 10:13:00,48.5,37.7,30.06,SSE,168,0.0,0.0,66,0.00,,---,0.00,VWS V14.01,2013-04-29 17:13:00,
2013-04-29 10:18:00,48.5,37.7,30.06,SSW,211,0.0,0.0,66,0.00,,---,0.00,VWS V14.01,2013-04-29 17:18:00,
2013-04-29 10:23:00,49.1,37.9,30.06,SE,138,0.0,0.0,65,0.00,,---,0.00,VWS V14.01,2013-04-29 17:23:00,
2013-04-29 10:28:00,49.9,38.6,30.06,SSE,149,0.0,0.0,65,0.00,,---,0.00,VWS V14.01,2013-04-29 17:28:00,
2013-04-29 10:33:00,50.2,37.3,30.07,SSE,153,0.0,0.0,61,0.00,,---,0.00,VWS V14.01,2013-04-29 17:33:00,
2013-04-29 10:38:00,50.7,36.5,30.07,SE,126,0.0,0.0,58,0.00,,---,0.00,VWS V14.01,2013-04-29 17:38:00,
2013-04-29 10:43:00,50.5,37.2,30.07,WSW,253,0.0,0.0,60,0.00,,---,0.00,VWS V14.01,2013-04-29 17:43:00,
2013-04-29 10:48:00,50.5,37.6,30.07,SSW,211,0.0,0.0,61,0.00,,---,0.00,VWS V14.01,2013-04-29 17:48:00,
2013-04-29 10:53:00,50.5,36.7,30.07,South,188,0.0,0.0,59,0.00,,---,0.00,VWS V14.01,2013-04-29 17:53:00,
2013-04-29 10:58:00,50.8,36.1,30.07,SW,219,0.0,0.0,57,0.00,,---,0.00,VWS V14.01,2013-04-29 17:58:00,
2013-04-29 11:04:00,51.0,36.3,30.07,South,188,0.0,0.0,57,0.00,,---,0.00,VWS V14.01,2013-04-29 18:04:00,
2013-04-29 11:09:00,51.0,36.3,30.07,SW,217,0.0,0.0,57,0.00,,---,0.00,VWS V14.01,2013-04-29 18:09:00,
2013-04-29 11:14:00,51.0,35.4,30.07,SSW,206,0.0,0.0,55,0.00,,---,0.00,VWS V14.01,2013-04-29 18:14:00,
2013-04-29 11:19:00,51.3,35.7,30.07,SW,222,0.0,0.0,55,0.00,,---,0.00,VWS V14.01,2013-04-29 18:19:00,
2013-04-29 11:24:00,51.6,36.0,30.07,SE,124,0.0,0.0,55,0.00,,---,0.00,VWS V14.01,2013-04-29 18:24:00,
2013-04-29 11:29:00,51.6,36.9,30.07,SSE,152,0.0,0.0,57,0.00,,---,0.00,VWS V14.01,2013-04-29 18:29:00,
2013-04-29 11:34:00,51.6,36.9,30.07,South,185,0.0,0.0,57,0.00,,---,0.00,VWS V14.01,2013-04-29 18:34:00,
2013-04-29 11:39:00,51.6,36.9,30.07,South,177,0.0,0.0,57,0.00,,---,0.00,VWS V14.01,2013-04-29 18:39:00,
2013-04-29 11:44:00,51.7,35.6,30.07,SE,146,0.0,0.0,54,0.00,,---,0.00,VWS V14.01,2013-04-29 18:44:00,
2013-04-29 11:49:00,51.6,34.1,30.08,SE,125,0.0,0.0,51,0.00,,---,0.00,VWS V14.01,2013-04-29 18:49:00,
2013-04-29 11:54:00,51.6,34.6,30.08,SSE,155,0.0,0.0,52,0.00,,---,0.00,VWS V14.01,2013-04-29 18:54:00,
2013-04-29 11:59:00,52.0,34.5,30.07,SE,127,0.0,0.0,51,0.00,,---,0.00,VWS V14.01,2013-04-29 18:59:00,
2013-04-29 12:04:00,52.8,34.2,30.08,SSE,167,0.0,0.0,49,0.00,,---,0.00,VWS V14.01,2013-04-29 19:04:00,
2013-04-29 12:09:00,52.9,33.8,30.08,WSW,247,0.0,0.0,48,0.00,,---,0.00,VWS V14.01,2013-04-29 19:09:00,
2013-04-29 12:14:00,53.1,34.5,30.08,SSE,164,0.0,0.0,49,0.00,,---,0.00,VWS V14.01,2013-04-29 19:14:00,
2013-04-29 12:19:00,52.8,33.7,30.08,SE,125,0.0,0.0,48,0.00,,---,0.00,VWS V14.01,2013-04-29 19:19:00,
2013-04-29 12:24:00,53.1,32.9,30.07,WSW,250,0.0,0.0,46,0.00,,---,0.00,VWS V14.01,2013-04-29 19:24:00,
2013-04-29 12:29:00,53.3,33.1,30.08,SW,219,0.0,0.0,46,0.00,,---,0.00,VWS V14.01,2013-04-29 19:29:00,
2013-04-29 12:34:00,53.2,32.4,30.08,NW,311,0.0,0.0,45,0.00,,---,0.00,VWS V14.01,2013-04-29 19:34:00,
2013-04-29 12:39:00,53.3,33.6,30.08,NW,304,0.0,0.0,47,0.00,,---,0.00,VWS V14.01,2013-04-29 19:39:00,
2013-04-29 12:45:00,52.8,32.6,30.08,NE,52,0.0,0.0,46,0.00,,---,0.00,VWS V14.01,2013-04-29 19:45:00,
2013-04-29 12:50:00,51.7,32.7,30.08,ENE,74,0.0,0.0,48,0.00,,---,0.00,VWS V14.01,2013-04-29 19:50:00,
2013-04-29 12:55:00,51.1,34.1,30.08,NE,49,0.0,0.0,52,0.00,,---,0.00,VWS V14.01,2013-04-29 19:55:00,
2013-04-29 13:00:00,50.7,34.2,30.08,East,91,0.0,0.0,53,0.00,,---,0.00,VWS V14.01,2013-04-29 20:00:00,
2013-04-29 13:05:00,50.4,33.5,30.09,ENE,59,0.0,0.0,52,0.00,,---,0.00,VWS V14.01,2013-04-29 20:05:00,
2013-04-29 13:10:00,50.2,34.2,30.09,NNE,12,0.0,0.0,54,0.00,,---,0.00,VWS V14.01,2013-04-29 20:10:00,
2013-04-29 13:15:00,50.4,35.3,30.09,ENE,74,0.0,0.0,56,0.00,,---,0.00,VWS V14.01,2013-04-29 20:15:00,
2013-04-29 13:20:00,50.2,35.1,30.09,East,80,0.0,0.0,56,0.00,,---,0.00,VWS V14.01,2013-04-29 20:20:00,
2013-04-29 13:25:00,50.1,35.0,30.09,ESE,111,0.0,0.0,56,0.00,,---,0.00,VWS V14.01,2013-04-29 20:25:00,
2013-04-29 13:30:00,50.1,34.1,30.09,NE,36,0.0,0.0,54,0.00,,---,0.00,VWS V14.01,2013-04-29 20:30:00,
2013-04-29 13:35:00,50.4,32.5,30.09,WNW,303,0.0,0.0,50,0.00,,---,0.00,VWS V14.01,2013-04-29 20:35:00,
2013-04-29 13:40:00,50.7,31.2,30.09,NE,40,0.0,0.0,47,0.00,,---,0.00,VWS V14.01,2013-04-29 20:40:00,
2013-04-29 13:45:00,51.3,31.8,30.09,NNE,15,0.0,0.0,47,0.00,,---,0.00,VWS V14.01,2013-04-29 20:45:00,
2013-04-29 13:50:00,52.2,31.5,30.09,North,351,0.0,0.0,45,0.00,,---,0.00,VWS V14.01,2013-04-29 20:50:00,
2013-04-29 13:55:00,52.3,29.9,30.09,ENE,61,0.0,0.0,42,0.00,,---,0.00,VWS V14.01,2013-04-29 20:55:00,
2013-04-29 14:00:00,52.5,28.9,30.09,NE,38,0.0,0.0,40,0.00,,---,0.00,VWS V14.01,2013-04-29 21:00:00,
2013-04-29 14:05:00,52.3,29.9,30.09,NNW,340,0.0,0.0,42,0.00,,---,0.00,VWS V14.01,2013-04-29 21:05:00,
2013-04-29 14:10:00,52.0,29.0,30.09,North,360,0.0,0.0,41,0.00,,---,0.00,VWS V14.01,2013-04-29 21:10:00,
2013-04-29 14:15:00,51.9,29.0,30.08,North,360,0.0,0.0,41,0.00,,---,0.00,VWS V14.01,2013-04-29 21:15:00,
2013-04-29 14:20:00,52.3,29.9,30.08,North,360,0.0,0.0,42,0.00,,---,0.00,VWS V14.01,2013-04-29 21:20:00,
2013-04-29 14:25:00,53.1,29.4,30.08,WNW,284,0.0,0.0,40,0.00,,---,0.00,VWS V14.01,2013-04-29 21:25:00,
2013-04-29 14:31:00,53.6,28.0,30.08,NE,48,0.0,0.0,37,0.00,,---,0.00,VWS V14.01,2013-04-29 21:31:00,
2013-04-29 14:36:00,53.5,27.9,30.08,NE,56,0.0,0.0,37,0.00,,---,0.00,VWS V14.01,2013-04-29 21:36:00,
2013-04-29 14:41:00,54.1,28.4,30.08,North,360,0.0,0.0,37,0.00,,---,0.00,VWS V14.01,2013-04-29 21:41:00,
2013-04-29 14:46:00,54.5,28.8,30.08,WNW,302,0.0,0.0,37,0.00,,---,0.00,VWS V14.01,2013-04-29 21:46:00,
2013-04-29 14:51:00,55.3,28.1,30.08,NW,325,0.0,0.0,35,0.00,,---,0.00,VWS V14.01,2013-04-29 21:51:00,
2013-04-29 14:56:00,55.6,28.4,30.08,West,273,0.0,0.0,35,0.00,,---,0.00,VWS V14.01,2013-04-29 21:56:00,
2013-04-29 15:01:00,55.4,26.8,30.07,SE,125,0.0,0.0,33,0.00,,---,0.00,VWS V14.01,2013-04-29 22:01:00,
2013-04-29 15:06:00,55.3,27.4,30.08,East,101,0.0,0.0,34,0.00,,---,0.00,VWS V14.01,2013-04-29 22:06:00,
2013-04-29 15:11:00,55.0,29.2,30.08,NE,46,0.0,0.0,37,0.00,,---,0.00,VWS V14.01,2013-04-29 22:11:00,
2013-04-29 15:16:00,54.8,29.0,30.08,SSE,150,0.0,0.0,37,0.00,,---,0.00,VWS V14.01,2013-04-29 22:16:00,
2013-04-29 15:21:00,54.8,28.4,30.08,ESE,120,0.0,0.0,36,0.00,,---,0.00,VWS V14.01,2013-04-29 22:21:00,
2013-04-29 15:26:00,54.5,27.4,30.08,East,96,0.0,0.0,35,0.00,,---,0.00,VWS V14.01,2013-04-29 22:26:00,
2013-04-29 15:31:00,54.2,28.5,30.08,ESE,119,0.0,0.0,37,0.00,,---,0.00,VWS V14.01,2013-04-29 22:31:00,
2013-04-29 15:36:00,53.9,26.9,30.08,ESE,107,0.0,0.0,35,0.00,,---,0.00,VWS V14.01,2013-04-29 22:36:00,
2013-04-29 15:41:00,53.6,27.3,30.08,SSE,153,0.0,0.0,36,0.00,,---,0.00,VWS V14.01,2013-04-29 22:41:00,
2013-04-29 15:46:00,53.8,28.2,30.08,ESE,107,0.0,0.0,37,0.00,,---,0.00,VWS V14.01,2013-04-29 22:46:00,
2013-04-29 15:52:00,53.8,28.2,30.08,NE,38,0.0,0.0,37,0.00,,---,0.00,VWS V14.01,2013-04-29 22:52:00,
2013-04-29 15:57:00,54.2,29.2,30.07,NNE,32,0.0,0.0,38,0.00,,---,0.00,VWS V14.01,2013-04-29 22:57:00,
2013-04-29 16:02:00,54.4,30.0,30.07,NNE,17,0.0,0.0,39,0.00,,---,0.00,VWS V14.01,2013-04-29 23:02:00,
2013-04-29 16:07:00,55.0,30.5,30.07,ENE,66,0.0,0.0,39,0.00,,---,0.00,VWS V14.01,2013-04-29 23:07:00,
2013-04-29 16:12:00,55.1,30.0,30.08,NW,320,0.0,0.0,38,0.00,,---,0.00,VWS V14.01,2013-04-29 23:12:00,
2013-04-29 16:17:00,54.8,28.4,30.07,North,351,0.0,0.0,36,0.00,,---,0.00,VWS V14.01,2013-04-29 23:17:00,
2013-04-29 16:22:00,54.8,29.0,30.08,NE,35,0.0,0.0,37,0.00,,---,0.00,VWS V14.01,2013-04-29 23:22:00,
2013-04-29 16:27:00,55.0,29.2,30.07,East,89,0.0,0.0,37,0.00,,---,0.00,VWS V14.01,2013-04-29 23:27:00,
2013-04-29 16:32:00,54.8,29.7,30.08,NNE,33,0.0,0.0,38,0.00,,---,0.00,VWS V14.01,2013-04-29 23:32:00,
2013-04-29 16:37:00,54.7,29.6,30.08,NNE,27,0.0,0.0,38,0.00,,---,0.00,VWS V14.01,2013-04-29 23:37:00,
2013-04-29 16:42:00,54.4,30.0,30.08,NNE,32,0.0,0.0,39,0.00,,---,0.00,VWS V14.01,2013-04-29 23:42:00,
2013-04-29 16:47:00,54.1,30.9,30.07,WNW,286,0.0,0.0,41,0.00,,---,0.00,VWS V14.01,2013-04-29 23:47:00,
2013-04-29 16:52:00,53.9,30.8,30.08,NW,325,0.0,0.0,41,0.00,,---,0.00,VWS V14.01,2013-04-29 23:52:00,
2013-04-29 16:57:00,53.9,31.4,30.08,North,10,0.0,0.0,42,0.00,,---,0.00,VWS V14.01,2013-04-29 23:57:00,
2013-04-29 17:02:00,54.1,31.5,30.08,NW,324,0.0,0.0,42,0.00,,---,0.00,VWS V14.01,2013-04-30 00:02:00,
2013-04-29 17:07:00,54.4,31.2,30.08,ENE,67,0.0,0.0,41,0.00,,---,0.00,VWS V14.01,2013-04-30 00:07:00,
2013-04-29 17:12:00,54.7,31.5,30.08,ENE,74,0.0,0.0,41,0.00,,---,0.00,VWS V14.01,2013-04-30 00:12:00,
2013-04-29 17:17:00,54.7,30.9,30.07,NNE,24,0.0,0.0,40,0.00,,---,0.00,VWS V14.01,2013-04-30 00:17:00,
2013-04-29 17:23:00,54.5,31.3,30.08,NNW,344,0.0,0.0,41,0.00,,---,0.00,VWS V14.01,2013-04-30 00:23:00,
2013-04-29 17:28:00,54.4,31.2,30.07,NE,53,0.0,0.0,41,0.00,,---,0.00,VWS V14.01,2013-04-30 00:28:00,
2013-04-29 17:33:00,54.1,30.3,30.07,NNW,340,0.0,0.0,40,0.00,,---,0.00,VWS V14.01,2013-04-30 00:33:00,
2013-04-29 17:38:00,54.4,31.2,30.08,North,351,0.0,0.0,41,0.00,,---,0.00,VWS V14.01,2013-04-30 00:38:00,
2013-04-29 17:43:00,54.4,30.0,30.08,ENE,57,0.0,0.0,39,0.00,,---,0.00,VWS V14.01,2013-04-30 00:43:00,
2013-04-29 17:48:00,54.4,30.0,30.08,North,351,0.0,0.0,39,0.00,,---,0.00,VWS V14.01,2013-04-30 00:48:00,
2013-04-29 17:53:00,54.2,30.4,30.08,NNE,20,0.0,0.0,40,0.00,,---,0.00,VWS V14.01,2013-04-30 00:53:00,
2013-04-29 17:58:00,53.9,31.4,30.08,NE,34,0.0,0.0,42,0.00,,---,0.00,VWS V14.01,2013-04-30 00:58:00,
2013-04-29 18:03:00,53.6,31.1,30.08,NNE,19,0.0,0.0,42,0.00,,---,0.00,VWS V14.01,2013-04-30 01:03:00,
2013-04-29 18:08:00,53.6,31.1,30.08,NW,325,0.0,0.0,42,0.00,,---,0.00,VWS V14.01,2013-04-30 01:08:00,
2013-04-29 18:13:00,53.3,30.8,30.08,NNE,27,0.0,0.0,42,0.00,,---,0.00,VWS V14.01,2013-04-30 01:13:00,
2013-04-29 18:18:00,52.9,31.0,30.08,NNE,27,0.0,0.0,43,0.00,,---,0.00,VWS V14.01,2013-04-30 01:18:00,
2013-04-29 18:23:00,52.5,31.2,30.08,NNW,340,0.0,0.0,44,0.00,,---,0.00,VWS V14.01,2013-04-30 01:23:00,
2013-04-29 18:28:00,52.2,31.0,30.08,North,360,0.0,0.0,44,0.00,,---,0.00,VWS V14.01,2013-04-30 01:28:00,
2013-04-29 18:33:00,51.6,31.5,30.08,ENE,65,0.0,0.0,46,0.00,,---,0.00,VWS V14.01,2013-04-30 01:33:00,
2013-04-29 18:38:00,51.1,32.1,30.09,NNW,331,0.0,0.0,48,0.00,,---,0.00,VWS V14.01,2013-04-30 01:38:00,
2013-04-29 18:43:00,50.8,31.8,30.09,NNW,344,0.0,0.0,48,0.00,,---,0.00,VWS V14.01,2013-04-30 01:43:00,
2013-04-29 18:48:00,50.7,32.2,30.09,NNW,343,0.0,0.0,49,0.00,,---,0.00,VWS V14.01,2013-04-30 01:48:00,
2013-04-29 18:53:00,50.5,32.1,30.09,NE,53,0.0,0.0,49,0.00,,---,0.00,VWS V14.01,2013-04-30 01:53:00,
2013-04-29 18:58:00,50.4,32.5,30.09,ENE,59,0.0,0.0,50,0.00,,---,0.00,VWS V14.01,2013-04-30 01:58:00,
2013-04-29 19:04:00,50.2,33.7,30.09,North,11,0.0,0.0,53,0.00,,---,0.00,VWS V14.01,2013-04-30 02:04:00,
2013-04-29 19:09:00,49.8,33.8,30.09,NE,45,0.0,0.0,54,0.00,,---,0.00,VWS V14.01,2013-04-30 02:09:00,
2013-04-29 19:14:00,49.6,33.7,30.09,NNE,29,0.0,0.0,54,0.00,,---,0.00,VWS V14.01,2013-04-30 02:14:00,
2013-04-29 19:19:00,49.6,33.7,30.09,North,360,0.0,0.0,54,0.00,,---,0.00,VWS V14.01,2013-04-30 02:19:00,
2013-04-29 19:24:00,49.4,32.5,30.09,NNE,32,0.0,0.0,52,0.00,,---,0.00,VWS V14.01,2013-04-30 02:24:00,
2013-04-29 19:29:00,49.4,33.0,30.09,East,91,0.0,0.0,53,0.00,,---,0.00,VWS V14.01,2013-04-30 02:29:00,
2013-04-29 19:34:00,49.2,32.8,30.09,ENE,76,0.0,0.0,53,0.00,,---,0.00,VWS V14.01,2013-04-30 02:34:00,
2013-04-29 19:39:00,49.2,33.3,30.09,ENE,61,0.0,0.0,54,0.00,,---,0.00,VWS V14.01,2013-04-30 02:39:00,
2013-04-29 19:44:00,49.1,32.7,30.10,NE,42,0.0,0.0,53,0.00,,---,0.00,VWS V14.01,2013-04-30 02:44:00,
2013-04-29 19:49:00,48.8,32.9,30.10,ENE,60,0.0,0.0,54,0.00,,---,0.00,VWS V14.01,2013-04-30 02:49:00,
2013-04-29 19:54:00,48.6,32.7,30.10,ENE,63,0.0,0.0,54,0.00,,---,0.00,VWS V14.01,2013-04-30 02:54:00,
2013-04-29 19:59:00,48.5,33.1,30.10,ENE,72,0.0,0.0,55,0.00,,---,0.00,VWS V14.01,2013-04-30 02:59:00,
2013-04-29 20:04:00,48.2,32.8,30.10,NE,55,0.0,0.0,55,0.00,,---,0.00,VWS V14.01,2013-04-30 03:04:00,
2013-04-29 20:09:00,47.9,33.0,30.10,NE,49,0.0,0.0,56,0.00,,---,0.00,VWS V14.01,2013-04-30 03:09:00,
2013-04-29 20:14:00,47.7,32.8,30.10,ENE,65,0.0,0.0,56,0.00,,---,0.00,VWS V14.01,2013-04-30 03:14:00,
2013-04-29 20:19:00,47.6,33.1,30.10,NE,40,0.0,0.0,57,0.00,,---,0.00,VWS V14.01,2013-04-30 03:19:00,
2013-04-29 20:24:00,47.4,33.0,30.10,ENE,63,0.0,0.0,57,0.00,,---,0.00,VWS V14.01,2013-04-30 03:24:00,
2013-04-29 20:29:00,47.3,33.3,30.11,NE,48,0.0,0.0,58,0.00,,---,0.00,VWS V14.01,2013-04-30 03:29:00,
2013-04-29 20:35:00,47.1,33.1,30.11,NE,50,0.0,0.0,58,0.00,,---,0.00,VWS V14.01,2013-04-30 03:35:00,
2013-04-29 20:40:00,47.1,33.1,30.11,NE,53,0.0,0.0,58,0.00,,---,0.00,VWS V14.01,2013-04-30 03:40:00,
2013-04-29 20:45:00,47.0,33.0,30.11,NE,54,0.0,0.0,58,0.00,,---,0.00,VWS V14.01,2013-04-30 03:45:00,
2013-04-29 20:50:00,46.8,32.8,30.11,NNE,22,0.0,0.0,58,0.00,,---,0.00,VWS V14.01,2013-04-30 03:50:00,
2013-04-29 20:55:00,46.8,32.8,30.11,ENE,63,0.0,0.0,58,0.00,,---,0.00,VWS V14.01,2013-04-30 03:55:00,
2013-04-29 21:00:00,46.8,32.8,30.12,ENE,71,0.0,0.0,58,0.00,,---,0.00,VWS V14.01,2013-04-30 04:00:00,
2013-04-29 21:01:00,46.8,32.8,30.11,East,90,0.0,0.0,58,0.00,,---,0.00,VWS V14.01,2013-04-30 04:01:00,
2013-04-29 21:02:00,46.8,32.8,30.11,NE,41,0.0,0.0,58,0.00,,---,0.00,VWS V14.01,2013-04-30 04:02:00,
2013-04-29 21:07:00,46.8,32.8,30.12,NE,48,0.0,0.0,58,0.00,,---,0.00,VWS V14.01,2013-04-30 04:07:00,
2013-04-29 21:12:00,46.7,32.7,30.12,East,84,0.0,0.0,58,0.00,,---,0.00,VWS V14.01,2013-04-30 04:12:00,
2013-04-29 21:17:00,46.7,32.3,30.12,NNE,23,0.0,0.0,57,0.00,,---,0.00,VWS V14.01,2013-04-30 04:17:00,
2013-04-29 21:22:00,46.7,32.3,30.12,East,90,0.0,0.0,57,0.00,,---,0.00,VWS V14.01,2013-04-30 04:22:00,
2013-04-29 21:27:00,46.7,33.2,30.12,East,91,0.0,0.0,59,0.00,,---,0.00,VWS V14.01,2013-04-30 04:27:00,
2013-04-29 21:32:00,46.5,34.2,30.13,ESE,111,0.0,0.0,62,0.00,,---,0.00,VWS V14.01,2013-04-30 04:32:00,
2013-04-29 21:37:00,46.4,34.1,30.13,ESE,105,0.0,0.0,62,0.00,,---,0.00,VWS V14.01,2013-04-30 04:37:00,
2013-04-29 21:42:00,46.1,34.2,30.13,East,96,0.0,0.0,63,0.00,,---,0.00,VWS V14.01,2013-04-30 04:42:00,
2013-04-29 21:47:00,46.0,34.9,30.13,East,98,0.0,0.0,65,0.00,,---,0.00,VWS V14.01,2013-04-30 04:47:00,
2013-04-29 21:52:00,45.7,35.8,30.13,East,96,0.0,0.0,68,0.00,,---,0.00,VWS V14.01,2013-04-30 04:52:00,
2013-04-29 21:57:00,45.5,35.6,30.13,ESE,103,0.0,0.0,68,0.00,,---,0.00,VWS V14.01,2013-04-30 04:57:00,
2013-04-29 22:03:00,45.4,34.7,30.13,SE,128,0.0,0.0,66,0.00,,---,0.00,VWS V14.01,2013-04-30 05:03:00,
2013-04-29 22:08:00,45.4,35.1,30.13,East,85,0.0,0.0,67,0.00,,---,0.00,VWS V14.01,2013-04-30 05:08:00,
2013-04-29 22:13:00,45.4,35.5,30.13,SE,144,0.0,0.0,68,0.00,,---,0.00,VWS V14.01,2013-04-30 05:13:00,
2013-04-29 22:18:00,45.2,35.3,30.13,ESE,103,0.0,0.0,68,0.00,,---,0.00,VWS V14.01,2013-04-30 05:18:00,
2013-04-29 22:23:00,45.1,35.2,30.13,SE,132,0.0,0.0,68,0.00,,---,0.00,VWS V14.01,2013-04-30 05:23:00,
2013-04-29 22:28:00,45.1,35.2,30.13,ESE,104,0.0,0.0,68,0.00,,---,0.00,VWS V14.01,2013-04-30 05:28:00,
2013-04-29 22:33:00,44.9,35.4,30.14,ESE,112,0.0,0.0,69,0.00,,---,0.00,VWS V14.01,2013-04-30 05:33:00,
2013-04-29 22:38:00,44.9,35.7,30.14,NE,44,0.0,0.0,70,0.00,,---,0.00,VWS V14.01,2013-04-30 05:38:00,
2013-04-29 22:43:00,44.8,36.0,30.14,East,88,0.0,0.0,71,0.00,,---,0.00,VWS V14.01,2013-04-30 05:43:00,
2013-04-29 22:48:00,44.6,35.8,30.14,East,80,0.0,0.0,71,0.00,,---,0.00,VWS V14.01,2013-04-30 05:48:00,
2013-04-29 22:53:00,44.5,35.7,30.14,East,83,0.0,0.0,71,0.00,,---,0.00,VWS V14.01,2013-04-30 05:53:00,
2013-04-29 22:58:00,44.2,35.4,30.14,East,98,0.0,0.0,71,0.00,,---,0.00,VWS V14.01,2013-04-30 05:58:00,
2013-04-29 23:03:00,44.1,35.7,30.14,ESE,103,0.0,0.0,72,0.00,,---,0.00,VWS V14.01,2013-04-30 06:03:00,
2013-04-29 23:08:00,44.1,36.0,30.14,ESE,116,0.0,0.0,73,0.00,,---,0.00,VWS V14.01,2013-04-30 06:08:00,
2013-04-29 23:13:00,43.9,35.8,30.14,East,99,0.0,0.0,73,0.00,,---,0.00,VWS V14.01,2013-04-30 06:13:00,
2013-04-29 23:18:00,43.8,35.7,30.14,ESE,112,0.0,0.0,73,0.00,,---,0.00,VWS V14.01,2013-04-30 06:18:00,
2013-04-29 23:23:00,43.6,35.5,30.14,ESE,112,0.0,0.0,73,0.00,,---,0.00,VWS V14.01,2013-04-30 06:23:00,
2013-04-29 23:28:00,43.6,35.5,30.14,ESE,112,0.0,0.0,73,0.00,,---,0.00,VWS V14.01,2013-04-30 06:28:00,
2013-04-29 23:33:00,43.6,35.5,30.14,SE,130,0.0,0.0,73,0.00,,---,0.00,VWS V14.01,2013-04-30 06:33:00,
2013-04-29 23:38:00,43.5,35.4,30.14,SE,142,0.0,0.0,73,0.00,,---,0.00,VWS V14.01,2013-04-30 06:38:00,
2013-04-29 23:44:00,43.5,35.4,30.14,SE,132,0.0,0.0,73,0.00,,---,0.00,VWS V14.01,2013-04-30 06:44:00,
2013-04-29 23:49:00,43.3,35.2,30.15,SE,128,0.0,0.0,73,0.00,,---,0.00,VWS V14.01,2013-04-30 06:49:00,
2013-04-29 23:54:00,43.2,35.1,30.15,East,93,0.0,0.0,73,0.00,,---,0.00,VWS V14.01,2013-04-30 06:54:00,
2013-04-29 23:59:00,43.1,35.0,30.15,East,101,0.0,0.0,73,0.00,,---,0.00,VWS V14.01,2013-04-30 06:59:00,